createdAt,value
2023-04-08T00:01:23.221Z,6.55
2023-04-08T00:03:52.533Z,6.49
2023-04-08T00:06:21.295Z,6.57
2023-04-08T00:08:50.570Z,6.47
2023-04-08T00:11:19.721Z,6.24
2023-04-08T00:13:48.560Z,6.24
2023-04-08T00:16:17.231Z,6.33
2023-04-08T00:18:47.694Z,6.16
2023-04-08T00:21:18.013Z,6.24
2023-04-08T00:23:46.978Z,6.62
2023-04-08T00:26:15.708Z,6.48
2023-04-08T00:28:47.608Z,6.35
2023-04-08T00:31:17.034Z,6.68
2023-04-08T00:33:47.113Z,6.37
2023-04-08T00:36:15.789Z,6.18
2023-04-08T00:38:44.746Z,6.42
2023-04-08T00:41:13.933Z,6.45
2023-04-08T00:43:42.612Z,6.43
2023-04-08T00:46:12.320Z,6.36
2023-04-08T00:48:41.034Z,6.56
2023-04-08T00:51:11.211Z,6.08
2023-04-08T00:53:40.182Z,6.10
2023-04-08T00:56:08.849Z,5.93
2023-04-08T00:58:37.714Z,6.16
2023-04-08T01:01:11.280Z,5.96
2023-04-08T01:03:46.220Z,5.99
2023-04-08T01:06:20.605Z,6.16
2023-04-08T01:08:50.423Z,6.08
2023-04-08T01:11:20.118Z,5.98
2023-04-08T01:13:50.504Z,6.05
2023-04-08T01:16:20.533Z,5.69
2023-04-08T01:18:53.065Z,5.77
2023-04-08T01:21:23.565Z,5.83
2023-04-08T01:23:58.484Z,5.90
2023-04-08T01:26:29.132Z,5.89
2023-04-08T01:28:59.828Z,6.02
2023-04-08T01:31:28.874Z,5.94
2023-04-08T01:34:01.850Z,6.13
2023-04-08T01:36:30.646Z,6.18
2023-04-08T01:38:59.376Z,6.05
2023-04-08T01:41:29.570Z,6.02
2023-04-08T01:44:00.304Z,6.14
2023-04-08T01:46:29.119Z,6.34
2023-04-08T01:48:58.982Z,6.29
2023-04-08T01:51:28.105Z,6.53
2023-04-08T01:53:58.639Z,6.45
2023-04-08T01:56:30.796Z,6.29
2023-04-08T01:59:00.464Z,6.22
2023-04-08T02:01:30.986Z,6.09
2023-04-08T02:04:00.971Z,6.08
2023-04-08T02:06:30.027Z,5.98
2023-04-08T02:08:58.871Z,6.13
2023-04-08T02:11:30.678Z,6.22
2023-04-08T02:14:00.770Z,6.24
2023-04-08T02:16:34.243Z,6.34
2023-04-08T02:19:07.047Z,6.09
2023-04-08T02:21:42.765Z,6.05
2023-04-08T02:24:14.568Z,6.26
2023-04-08T02:26:44.338Z,6.35
2023-04-08T02:29:16.728Z,6.37
2023-04-08T02:31:46.826Z,6.20
2023-04-08T02:34:16.130Z,5.80
2023-04-08T02:36:47.416Z,5.63
2023-04-08T02:39:16.293Z,6.15
2023-04-08T02:41:45.431Z,5.48
2023-04-08T02:44:15.468Z,5.69
2023-04-08T02:46:44.200Z,5.83
2023-04-08T02:49:13.142Z,5.52
2023-04-08T02:51:41.732Z,5.71
2023-04-08T02:54:10.481Z,5.59
2023-04-08T02:56:39.454Z,5.74
2023-04-08T02:59:17.497Z,5.56
2023-04-08T03:01:46.566Z,5.52
2023-04-08T03:04:16.652Z,5.69
2023-04-08T03:06:46.732Z,5.76
2023-04-08T03:09:19.739Z,5.19
2023-04-08T03:11:53.112Z,5.48
2023-04-08T03:14:23.525Z,5.73
2023-04-08T03:16:52.217Z,5.59
2023-04-08T03:19:20.968Z,5.86
2023-04-08T03:21:49.905Z,5.81
2023-04-08T03:24:18.531Z,6.08
2023-04-08T03:26:47.168Z,5.50
2023-04-08T03:29:16.196Z,5.63
2023-04-08T03:31:46.427Z,5.90
2023-04-08T03:34:15.139Z,5.80
2023-04-08T03:36:44.067Z,5.87
2023-04-08T03:39:12.744Z,6.06
2023-04-08T03:41:41.393Z,6.03
2023-04-08T03:44:10.548Z,6.47
2023-04-08T03:46:39.218Z,6.34
2023-04-08T03:49:09.278Z,5.89
2023-04-08T03:51:39.350Z,5.92
2023-04-08T03:54:08.044Z,5.78
2023-04-08T03:56:36.690Z,5.52
2023-04-08T03:59:05.784Z,5.48
2023-04-08T04:01:34.486Z,5.49
2023-04-08T04:04:03.768Z,5.68
2023-04-08T04:06:33.967Z,5.60
2023-04-08T04:09:02.932Z,5.64
2023-04-08T04:11:31.818Z,5.52
2023-04-08T04:14:00.390Z,5.47
2023-04-08T04:16:31.574Z,5.52
2023-04-08T04:19:01.522Z,5.68
2023-04-08T04:21:30.613Z,5.09
2023-04-08T04:24:00.560Z,5.80
2023-04-08T04:26:29.237Z,5.82
2023-04-08T04:28:58.152Z,5.88
2023-04-08T04:31:27.302Z,5.88
2023-04-08T04:33:56.261Z,6.08
2023-04-08T04:36:27.512Z,5.82
2023-04-08T04:38:56.757Z,5.82
2023-04-08T04:41:27.365Z,5.82
2023-04-08T04:43:55.979Z,5.77
2023-04-08T04:46:24.698Z,5.70
2023-04-08T04:48:53.620Z,5.63
2023-04-08T04:51:22.282Z,5.94
2023-04-08T04:53:51.092Z,5.96
2023-04-08T04:56:21.260Z,6.00
2023-04-08T04:58:51.893Z,6.02
2023-04-08T05:01:21.536Z,5.94
2023-04-08T05:03:50.238Z,5.46
2023-04-08T05:06:18.882Z,5.79
2023-04-08T05:08:48.111Z,5.31
2023-04-08T05:11:18.444Z,5.42
2023-04-08T05:13:47.445Z,5.85
2023-04-08T05:16:17.886Z,5.33
2023-04-08T05:18:46.776Z,5.70
2023-04-08T05:21:15.682Z,5.92
2023-04-08T05:23:44.262Z,5.90
2023-04-08T05:26:14.179Z,5.87
2023-04-08T05:28:43.831Z,5.44
2023-04-08T05:31:12.955Z,5.56
2023-04-08T05:33:43.228Z,5.74
2023-04-08T05:36:12.124Z,6.00
2023-04-08T05:38:42.672Z,5.55
2023-04-08T05:41:11.575Z,5.45
2023-04-08T05:43:40.452Z,5.73
2023-04-08T05:46:10.806Z,5.37
2023-04-08T05:48:39.763Z,5.66
2023-04-08T05:51:14.828Z,5.45
2023-04-08T05:53:43.775Z,5.36
2023-04-08T05:56:12.354Z,5.45
2023-04-08T05:58:41.061Z,5.75
2023-04-08T06:01:10.002Z,5.97
2023-04-08T06:03:39.074Z,5.87
2023-04-08T06:06:12.890Z,5.84
2023-04-08T06:08:43.314Z,5.68
2023-04-08T06:11:11.925Z,5.47
2023-04-08T06:13:40.814Z,6.06
2023-04-08T06:16:13.488Z,5.92
2023-04-08T06:18:42.326Z,5.85
2023-04-08T06:21:12.675Z,6.00
2023-04-08T06:23:41.344Z,5.63
2023-04-08T06:26:10.067Z,5.90
2023-04-08T06:28:39.076Z,6.33
2023-04-08T06:31:07.739Z,6.57
2023-04-08T06:33:36.330Z,6.55
2023-04-08T06:36:06.037Z,6.77
2023-04-08T06:38:36.211Z,6.46
2023-04-08T06:41:05.359Z,6.63
2023-04-08T06:43:34.372Z,6.65
2023-04-08T06:46:03.249Z,6.65
2023-04-08T06:48:32.274Z,6.78
2023-04-08T06:51:01.964Z,6.70
2023-04-08T06:53:31.348Z,6.74
2023-04-08T06:56:04.352Z,6.90
2023-04-08T06:58:33.027Z,6.86
2023-04-08T07:01:03.304Z,6.94
2023-04-08T07:03:32.062Z,6.81
2023-04-08T07:06:00.809Z,6.78
2023-04-08T07:08:29.800Z,6.80
2023-04-08T07:10:58.460Z,6.60
2023-04-08T07:13:29.516Z,6.54
2023-04-08T07:15:58.250Z,6.71
2023-04-08T07:18:26.844Z,6.66
2023-04-08T07:20:55.647Z,6.65
2023-04-08T07:23:24.898Z,6.70
2023-04-08T07:25:54.017Z,6.58
2023-04-08T07:28:22.681Z,6.56
2023-04-08T07:30:53.099Z,6.84
2023-04-08T07:33:21.768Z,6.66
2023-04-08T07:35:50.567Z,6.75
2023-04-08T07:38:19.598Z,6.66
2023-04-08T07:40:48.210Z,6.70
2023-04-08T07:43:16.987Z,6.90
2023-04-08T07:45:48.825Z,6.82
2023-04-08T07:48:18.888Z,6.81
2023-04-08T07:51:09.995Z,6.93
2023-04-08T07:53:36.486Z,6.70
2023-04-08T07:56:12.417Z,7.02
2023-04-08T07:58:41.898Z,6.93
2023-04-08T08:01:18.934Z,7.04
2023-04-08T08:03:49.864Z,6.67
2023-04-08T08:06:18.839Z,6.70
2023-04-08T08:08:47.492Z,7.11
2023-04-08T08:11:16.338Z,7.09
2023-04-08T08:13:45.013Z,7.19
2023-04-08T08:16:13.799Z,7.18
2023-04-08T08:18:42.735Z,7.35
2023-04-08T08:21:12.633Z,7.21
2023-04-08T08:23:41.243Z,7.32
2023-04-08T08:26:11.103Z,7.15
2023-04-08T08:28:40.346Z,7.30
2023-04-08T08:31:09.124Z,7.59
2023-04-08T08:33:38.054Z,7.79
2023-04-08T08:36:07.416Z,7.36
2023-04-08T08:38:37.521Z,7.40
2023-04-08T08:41:06.664Z,7.50
2023-04-08T08:43:35.796Z,7.47
2023-04-08T08:46:04.483Z,7.54
2023-04-08T08:48:34.137Z,7.60
2023-04-08T08:51:02.759Z,7.53
2023-04-08T08:53:35.660Z,7.45
2023-04-08T08:56:17.768Z,7.59
2023-04-08T08:58:47.659Z,7.83
2023-04-08T09:01:37.426Z,7.74
2023-04-08T09:04:16.721Z,7.73
2023-04-08T09:06:47.765Z,7.63
2023-04-08T09:09:16.503Z,7.68
2023-04-08T09:11:47.697Z,7.22
2023-04-08T09:14:24.044Z,6.63
2023-04-08T09:16:53.562Z,7.26
2023-04-08T09:19:22.815Z,7.11
2023-04-08T09:22:06.942Z,7.07
2023-04-08T09:24:37.134Z,7.11
2023-04-08T09:27:07.298Z,7.37
2023-04-08T09:29:39.282Z,7.56
2023-04-08T09:32:08.731Z,7.46
2023-04-08T09:34:37.755Z,7.65
2023-04-08T09:37:07.287Z,7.86
2023-04-08T09:39:36.161Z,8.05
2023-04-08T09:42:09.836Z,7.78
2023-04-08T09:44:38.685Z,8.00
2023-04-08T09:47:11.920Z,7.89
2023-04-08T09:49:47.731Z,7.16
2023-04-08T09:52:22.843Z,7.10
2023-04-08T09:55:02.446Z,6.59
2023-04-08T09:57:41.720Z,6.61
2023-04-08T10:00:13.013Z,6.98
2023-04-08T10:02:47.460Z,7.14
2023-04-08T10:05:18.530Z,6.71
2023-04-08T10:07:47.227Z,6.46
2023-04-08T10:10:16.453Z,6.60
2023-04-08T10:12:46.826Z,7.14
2023-04-08T10:15:28.383Z,7.16
2023-04-08T10:17:58.356Z,6.61
2023-04-08T10:20:43.513Z,7.14
2023-04-08T10:23:14.099Z,7.31
2023-04-08T10:25:44.836Z,7.45
2023-04-08T10:28:27.482Z,7.35
2023-04-08T10:30:57.509Z,7.31
2023-04-08T10:33:34.632Z,6.78
2023-04-08T10:36:11.457Z,7.08
2023-04-08T10:38:42.363Z,6.99
2023-04-08T10:41:12.047Z,7.39
2023-04-08T10:43:42.441Z,7.63
2023-04-08T10:46:11.930Z,7.86
2023-04-08T10:48:41.007Z,7.64
2023-04-08T10:51:09.663Z,7.83
2023-04-08T10:53:39.794Z,7.35
2023-04-08T10:56:11.090Z,7.22
2023-04-08T10:58:49.296Z,7.74
2023-04-08T11:01:18.544Z,7.77
2023-04-08T11:03:50.418Z,8.23
2023-04-08T11:06:20.164Z,8.03
2023-04-08T11:08:48.809Z,8.08
2023-04-08T11:11:17.459Z,7.58
2023-04-08T11:13:52.725Z,7.38
2023-04-08T11:16:23.115Z,7.39
2023-04-08T11:18:52.825Z,7.84
2023-04-08T11:21:22.358Z,7.75
2023-04-08T11:23:51.761Z,8.11
2023-04-08T11:26:21.215Z,8.41
2023-04-08T11:28:52.405Z,8.41
2023-04-08T11:31:24.301Z,8.65
2023-04-08T11:33:56.240Z,8.46
2023-04-08T11:36:26.058Z,8.50
2023-04-08T11:38:55.750Z,8.63
2023-04-08T11:41:24.510Z,8.65
2023-04-08T11:43:58.494Z,8.71
2023-04-08T11:46:27.367Z,8.71
2023-04-08T11:49:04.002Z,8.77
2023-04-08T11:51:34.353Z,8.21
2023-04-08T11:54:06.245Z,8.67
2023-04-08T11:56:46.474Z,8.27
2023-04-08T11:59:16.798Z,8.49
2023-04-08T12:01:47.511Z,8.32
2023-04-08T12:04:16.641Z,8.46
2023-04-08T12:06:47.150Z,7.86
2023-04-08T12:09:16.055Z,7.99
2023-04-08T12:11:44.629Z,7.76
2023-04-08T12:14:13.312Z,7.83
2023-04-08T12:16:43.609Z,7.87
2023-04-08T12:19:12.361Z,8.08
2023-04-08T12:21:41.080Z,7.65
2023-04-08T12:24:10.072Z,7.83
2023-04-08T12:26:38.863Z,7.99
2023-04-08T12:29:09.520Z,7.74
2023-04-08T12:31:38.820Z,7.69
2023-04-08T12:34:08.861Z,7.74
2023-04-08T12:36:39.006Z,7.51
2023-04-08T12:39:08.955Z,7.96
2023-04-08T12:41:37.786Z,8.39
2023-04-08T12:44:06.636Z,8.07
2023-04-08T12:46:38.612Z,8.30
2023-04-08T12:49:09.150Z,8.49
2023-04-08T12:51:38.005Z,8.17
2023-04-08T12:54:06.887Z,8.00
2023-04-08T12:56:35.661Z,8.65
2023-04-08T12:59:04.356Z,8.38
2023-04-08T13:01:33.373Z,8.06
2023-04-08T13:04:02.294Z,8.34
2023-04-08T13:06:33.051Z,8.34
2023-04-08T13:09:01.954Z,8.08
2023-04-08T13:11:30.970Z,7.89
2023-04-08T13:13:59.674Z,8.13
2023-04-08T13:16:28.745Z,8.50
2023-04-08T13:18:57.378Z,8.11
2023-04-08T13:21:26.712Z,7.86
2023-04-08T13:23:56.934Z,8.13
2023-04-08T13:26:26.620Z,7.26
2023-04-08T13:29:00.664Z,7.53
2023-04-08T13:31:29.920Z,7.83
2023-04-08T13:34:01.386Z,7.96
2023-04-08T13:36:30.084Z,7.98
2023-04-08T13:39:00.502Z,8.28
2023-04-08T13:41:30.074Z,8.49
2023-04-08T13:43:59.068Z,8.74
2023-04-08T13:46:27.810Z,8.59
2023-04-08T13:48:56.518Z,8.41
2023-04-08T13:51:25.475Z,8.88
2023-04-08T13:53:54.152Z,8.84
2023-04-08T13:56:24.184Z,8.60
2023-04-08T13:58:57.220Z,8.67
2023-04-08T14:01:26.459Z,8.57
2023-04-08T14:03:55.700Z,8.73
2023-04-08T14:06:24.413Z,9.11
2023-04-08T14:08:53.423Z,9.12
2023-04-08T14:11:23.987Z,9.17
2023-04-08T14:13:52.599Z,9.08
2023-04-08T14:16:21.497Z,8.73
2023-04-08T14:18:53.661Z,8.34
2023-04-08T14:21:22.566Z,8.49
2023-04-08T14:23:52.692Z,8.74
2023-04-08T14:26:21.716Z,8.79
2023-04-08T14:28:52.113Z,8.98
2023-04-08T14:31:21.274Z,9.15
2023-04-08T14:33:49.965Z,9.06
2023-04-08T14:36:19.083Z,8.88
2023-04-08T14:38:48.162Z,9.12
2023-04-08T14:41:16.963Z,8.85
2023-04-08T14:43:45.617Z,9.02
2023-04-08T14:46:16.782Z,8.61
2023-04-08T14:48:45.494Z,8.82
2023-04-08T14:51:14.404Z,8.87
2023-04-08T14:53:43.035Z,8.07
2023-04-08T14:56:11.918Z,8.57
2023-04-08T14:58:41.010Z,8.92
2023-04-08T15:01:09.724Z,8.87
2023-04-08T15:03:39.898Z,8.68
2023-04-08T15:06:08.904Z,8.84
2023-04-08T15:08:37.604Z,8.82
2023-04-08T15:11:06.364Z,8.89
2023-04-08T15:13:38.121Z,9.01
2023-04-08T15:16:07.009Z,8.74
2023-04-08T15:18:37.472Z,8.74
2023-04-08T15:21:07.559Z,9.00
2023-04-08T15:23:40.650Z,8.75
2023-04-08T15:26:34.444Z,9.02
2023-04-08T15:29:04.370Z,9.03
2023-04-08T15:31:34.960Z,9.05
2023-04-08T15:34:04.244Z,8.92
2023-04-08T15:36:42.938Z,8.93
2023-04-08T15:39:12.095Z,8.95
2023-04-08T15:41:41.701Z,8.80
2023-04-08T15:44:10.418Z,8.77
2023-04-08T15:46:39.433Z,8.75
2023-04-08T15:49:08.217Z,8.79
2023-04-08T15:51:38.267Z,8.52
2023-04-08T15:54:07.280Z,8.66
2023-04-08T15:56:36.590Z,8.49
2023-04-08T15:59:05.707Z,8.64
2023-04-08T16:01:37.200Z,8.42
2023-04-08T16:04:06.315Z,8.26
2023-04-08T16:06:35.115Z,8.63
2023-04-08T16:09:05.078Z,8.56
2023-04-08T16:11:34.766Z,8.38
2023-04-08T16:14:04.975Z,8.53
2023-04-08T16:16:34.338Z,8.50
2023-04-08T16:19:03.283Z,8.62
2023-04-08T16:21:32.219Z,8.51
2023-04-08T16:24:01.605Z,8.68
2023-04-08T16:26:31.571Z,8.74
2023-04-08T16:29:00.494Z,8.79
2023-04-08T16:34:02.961Z,8.59
2023-04-08T16:36:31.855Z,8.67
2023-04-08T16:39:00.510Z,8.90
2023-04-08T16:41:29.065Z,8.76
2023-04-08T16:43:59.728Z,8.87
2023-04-08T16:46:28.345Z,8.71
2023-04-08T16:48:57.228Z,8.60
2023-04-08T16:51:26.226Z,8.75
2023-04-08T16:53:56.355Z,8.61
2023-04-08T16:56:27.707Z,8.72
2023-04-08T16:58:56.447Z,8.66
2023-04-08T17:01:27.099Z,8.57
2023-04-08T17:03:57.091Z,8.56
2023-04-08T17:06:27.197Z,8.29
2023-04-08T17:08:56.115Z,8.33
2023-04-08T17:11:24.867Z,8.00
2023-04-08T17:13:53.680Z,7.15
2023-04-08T17:16:22.793Z,6.98
2023-04-08T17:18:52.897Z,7.14
2023-04-08T17:21:21.835Z,7.39
2023-04-08T17:23:50.685Z,6.87
2023-04-08T17:26:19.439Z,7.32
2023-04-08T17:28:48.531Z,7.56
2023-04-08T17:31:17.205Z,7.48
2023-04-08T17:33:45.886Z,7.44
2023-04-08T17:36:17.521Z,7.37
2023-04-08T17:38:47.849Z,7.57
2023-04-08T17:41:29.818Z,7.66
2023-04-08T17:44:04.850Z,7.84
2023-04-08T17:46:33.899Z,7.86
2023-04-08T17:49:02.735Z,7.89
2023-04-08T17:51:33.029Z,7.99
2023-04-08T17:54:02.031Z,8.02
2023-04-08T17:56:31.068Z,8.07
2023-04-08T17:58:59.689Z,8.09
2023-04-08T18:01:28.790Z,8.17
2023-04-08T18:03:57.746Z,8.22
2023-04-08T18:06:26.540Z,8.13
2023-04-08T18:08:56.638Z,8.23
2023-04-08T18:11:26.638Z,8.08
2023-04-08T18:13:55.333Z,8.48
2023-04-08T18:16:24.311Z,7.99
2023-04-08T18:18:53.340Z,8.09
2023-04-08T18:21:22.368Z,8.33
2023-04-08T18:23:53.677Z,7.91
2023-04-08T18:26:24.027Z,8.13
2023-04-08T18:28:52.739Z,8.33
2023-04-08T18:31:21.717Z,8.21
2023-04-08T18:33:51.047Z,8.23
2023-04-08T18:36:19.970Z,7.97
2023-04-08T18:38:49.580Z,8.05
2023-04-08T18:41:20.965Z,7.91
2023-04-08T18:43:51.262Z,8.17
2023-04-08T18:46:20.563Z,7.89
2023-04-08T18:48:49.746Z,7.96
2023-04-08T18:51:18.440Z,7.91
2023-04-08T18:53:47.724Z,7.84
2023-04-08T18:56:16.724Z,7.94
2023-04-08T18:58:46.855Z,8.00
2023-04-08T19:01:17.579Z,8.05
2023-04-08T19:03:46.501Z,7.96
2023-04-08T19:06:17.357Z,8.16
2023-04-08T19:08:48.119Z,8.02
2023-04-08T19:11:19.568Z,8.10
2023-04-08T19:13:48.632Z,8.15
2023-04-08T19:16:19.030Z,8.10
2023-04-08T19:18:47.716Z,7.95
2023-04-08T19:21:16.329Z,7.91
2023-04-08T19:23:46.482Z,7.76
2023-04-08T19:26:15.172Z,7.79
2023-04-08T19:28:44.046Z,7.78
2023-04-08T19:31:18.227Z,7.86
2023-04-08T19:33:46.887Z,7.52
2023-04-08T19:36:15.997Z,7.75
2023-04-08T19:38:44.668Z,7.39
2023-04-08T19:41:13.545Z,7.41
2023-04-08T19:43:42.354Z,7.63
2023-04-08T19:46:11.057Z,7.57
2023-04-08T19:48:41.181Z,7.50
2023-04-08T19:51:10.331Z,7.60
2023-04-08T19:53:39.072Z,7.45
2023-04-08T19:56:10.873Z,7.51
2023-04-08T19:58:39.816Z,7.44
2023-04-08T20:01:10.013Z,7.36
2023-04-08T20:03:39.051Z,7.52
2023-04-08T20:06:09.768Z,7.52
2023-04-08T20:08:38.408Z,7.60
2023-04-08T20:11:07.333Z,7.27
2023-04-08T20:13:36.154Z,7.67
2023-04-08T20:16:07.840Z,7.46
2023-04-08T20:18:49.482Z,7.42
2023-04-08T20:21:19.707Z,7.39
2023-04-08T20:23:48.540Z,7.34
2023-04-08T20:26:17.241Z,7.53
2023-04-08T20:28:46.301Z,7.26
2023-04-08T20:31:16.245Z,7.44
2023-04-08T20:33:45.605Z,7.25
2023-04-08T20:36:17.378Z,7.15
2023-04-08T20:38:47.627Z,7.10
2023-04-08T20:41:19.999Z,7.11
2023-04-08T20:43:48.972Z,7.10
2023-04-08T20:46:17.773Z,7.28
2023-04-08T20:48:47.199Z,7.32
2023-04-08T20:51:17.391Z,7.11
2023-04-08T20:53:47.371Z,7.00
2023-04-08T20:56:16.490Z,7.03
2023-04-08T20:58:45.156Z,6.96
2023-04-08T21:01:13.922Z,7.15
2023-04-08T21:03:43.396Z,7.14
2023-04-08T21:06:18.876Z,7.31
2023-04-08T21:08:49.430Z,7.29
2023-04-08T21:11:18.509Z,7.39
2023-04-08T21:13:49.110Z,7.17
2023-04-08T21:16:18.332Z,7.30
2023-04-08T21:18:46.947Z,7.35
2023-04-08T21:21:15.660Z,7.25
2023-04-08T21:23:44.667Z,7.14
2023-04-08T21:26:14.769Z,7.31
2023-04-08T21:28:44.086Z,6.78
2023-04-08T21:31:13.743Z,6.99
2023-04-08T21:33:42.523Z,7.20
2023-04-08T21:36:11.427Z,7.04
2023-04-08T21:38:40.507Z,7.04
2023-04-08T21:41:09.081Z,6.97
2023-04-08T21:43:39.161Z,6.88
2023-04-08T21:46:08.786Z,6.93
2023-04-08T21:48:37.512Z,7.06
2023-04-08T21:51:06.965Z,7.07
2023-04-08T21:53:36.133Z,6.74
2023-04-08T21:56:05.760Z,6.68
2023-04-08T21:58:35.045Z,6.74
2023-04-08T22:01:05.599Z,6.69
2023-04-08T22:03:34.653Z,6.60
2023-04-08T22:06:03.639Z,6.76
2023-04-08T22:08:32.584Z,6.81
2023-04-08T22:11:01.558Z,6.77
2023-04-08T22:13:30.314Z,7.01
2023-04-08T22:15:58.989Z,6.81
2023-04-08T22:18:32.966Z,6.94
2023-04-08T22:21:13.566Z,6.91
2023-04-08T22:23:46.160Z,7.03
2023-04-08T22:26:15.769Z,7.04
2023-04-08T22:28:44.817Z,6.86
2023-04-08T22:31:14.038Z,6.84
2023-04-08T22:33:44.160Z,6.94
2023-04-08T22:36:13.397Z,7.03
2023-04-08T22:38:42.371Z,6.68
2023-04-08T22:41:18.766Z,6.95
2023-04-08T22:43:47.960Z,6.73
2023-04-08T22:46:18.312Z,6.98
2023-04-08T22:48:49.441Z,6.79
2023-04-08T22:51:18.329Z,6.80
2023-04-08T22:53:47.248Z,6.72
2023-04-08T22:56:15.912Z,6.60
2023-04-08T22:58:44.634Z,6.71
2023-04-08T23:01:14.740Z,6.62
2023-04-08T23:03:43.444Z,6.54
2023-04-08T23:06:13.591Z,6.46
2023-04-08T23:08:42.586Z,6.40
2023-04-08T23:11:11.317Z,6.68
2023-04-08T23:13:39.973Z,6.63
2023-04-08T23:16:10.310Z,6.72
2023-04-08T23:18:39.116Z,6.66
2023-04-08T23:21:07.744Z,6.69
2023-04-08T23:23:38.134Z,6.82
2023-04-08T23:26:06.741Z,6.97
2023-04-08T23:28:35.390Z,6.77
2023-04-08T23:31:05.791Z,6.84
2023-04-08T23:33:34.536Z,6.90
2023-04-08T23:36:08.205Z,6.83
2023-04-08T23:38:39.084Z,6.81
2023-04-08T23:41:08.500Z,6.87
2023-04-08T23:43:37.414Z,6.76
2023-04-08T23:46:06.196Z,6.74
2023-04-08T23:48:34.886Z,6.87
2023-04-08T23:51:03.896Z,6.76
2023-04-08T23:53:32.485Z,6.82
2023-04-08T23:56:07.174Z,6.95
2023-04-08T23:58:39.621Z,7.00
